• Join FlightAware (Why Join?)
  • Login
  • US Flag 
07:42PM EST


 

Airport Tracker/Info


-or-


 

Live Flight TrackerFlight Track Log ✈ QJE1930 ✈ 11-Feb-2014 ✈ YPPH / PER - YBRM / BME

Flight Track Log - Related Links

Times and Time Zones

All times are in EST time to prevent confusion due to time zone crossing. See the QJE1930 flight status page for this flight to view local times or setup timezone preferences in your user account.

Time Position Orientation Groundspeed Altitude Reporting Facility
EST Latitude Longitude Course Direction KTS MPH feet Rate Location/Type
02:47AM -31.9331 115.9671 194° South 84 97  Level FlightAware ADS-B (YPPH / PER)
02:47AM -31.9442 115.9639 194° South 84 97 300 1,620 Climbing FlightAware ADS-B (YPPH / PER)
02:49AM -32.0033 115.9473 193° South 198 228 2,600 1,800 Climbing FlightAware ADS-B (YPPH / PER)
02:49AM -32.0157 115.9506 167° South 208 239 3,000 1,740 Climbing FlightAware ADS-B (YPPH / PER)
02:49AM -32.0342 115.9685 141° Southeast 208 239 3,700 1,860 Climbing FlightAware ADS-B (YPPH / PER)
02:50AM -32.0485 116.0199 108° East 259 298 5,000 1,920 Climbing FlightAware ADS-B (YPPH / PER)
02:51AM -32.0683 116.1099 108° East 263 303 7,100 2,220 Climbing Aus ATC (RADAR)
02:51AM -32.0769 116.1461 108° East 300 345 8,300 2,460 Climbing FlightAware ADS-B (YPPH / PER)
02:52AM -32.0862 116.1950 103° East 308 354 9,300 2,280 Climbing FlightAware ADS-B (YPPH / PER)
02:52AM -32.0800 116.2234 76° East 294 338 10,100 2,220 Climbing FlightAware ADS-B (YPPH / PER)
02:53AM -32.0649 116.2457 51° Northeast 295 339 10,700 1,440 Climbing FlightAware ADS-B (YPPH / PER)
02:53AM -32.0301 116.2896 51° Northeast 305 351 11,400 1,560 Climbing Aus ATC (RADAR)
02:53AM -32.0187 116.3040 51° Northeast 332 382 11,900 1,440 Climbing FlightAware ADS-B (YPPH / PER)
02:54AM -31.9763 116.3571 47° Northeast 363 418 12,600 1,380 Climbing FlightAware ADS-B (YPPH / PER)
02:55AM -31.9253 116.4204 46° Northeast 376 433 13,800 2,040 Climbing FlightAware ADS-B (YPPH / PER)
02:55AM -31.8719 116.4864 46° Northeast 381 438 15,500 2,220 Climbing FlightAware ADS-B (YPPH / PER)
02:56AM -31.8257 116.5440 47° Northeast 386 444 16,900 1,920 Climbing FlightAware ADS-B (YPPH / PER)
02:57AM -31.7733 116.6094 47° Northeast 400 460 18,100 1,620 Climbing FlightAware ADS-B (YPPH / PER)
02:57AM -31.7157 116.6804 47° Northeast 392 451 19,300 1,620 Climbing Aus ATC (RADAR)
02:58AM -31.7036 116.6955 47° Northeast 401 461 19,600 1,680 Climbing FlightAware ADS-B (YPPH / PER)
02:58AM -31.6525 116.7587 46° Northeast 408 470 20,700 1,260 Climbing FlightAware ADS-B (YPPH / PER)
02:59AM -31.5996 116.8233 46° Northeast 423 487 21,300 1,140 Climbing FlightAware ADS-B (YPPH / PER)
02:59AM -31.5579 116.8657 41° Northeast 429 494 22,000 1,500 Climbing FlightAware ADS-B (YPPH / PER)
03:00AM -31.5108 116.8957 28° Northeast 425 489 22,700 1,440 Climbing FlightAware ADS-B (YPPH / PER)
03:00AM -31.4419 116.9249 20° North 426 490 23,600 1,440 Climbing FlightAware ADS-B (YPPH / PER)
03:01AM -31.3636 116.9571 19° North 424 488 24,600 1,140 Climbing FlightAware ADS-B (YPPH / PER)
03:02AM -31.2718 116.9949 19° North 434 499 25,300 1,200 Climbing Aus ATC (RADAR)
03:02AM -31.2622 116.9987 19° North 431 496 25,700 1,500 Climbing FlightAware ADS-B (YPPH / PER)
03:03AM -31.1829 117.0315 20° North 442 509 26,500 1,080 Climbing FlightAware ADS-B (YPPH / PER)
03:03AM -31.1042 117.0635 19° North 448 516 27,200 840 Climbing FlightAware ADS-B (YPPH / PER)
03:04AM -31.0296 117.0947 19° North 447 514 27,600 1,140 Climbing Aus ATC (RADAR)
03:04AM -31.0017 117.1052 19° North 443 510 28,200 1,680 Climbing FlightAware ADS-B (YPPH / PER)
03:05AM -30.9212 117.1380 19° North 445 512 29,200 1,320 Climbing FlightAware ADS-B (YPPH / PER)
03:06AM -30.8455 117.1692 19° North 441 507 30,000 1,140 Climbing FlightAware ADS-B (YPPH / PER)
03:06AM -30.7844 117.1970 21° North 437 503 30,600 1,020 Climbing FlightAware ADS-B (YPPH / PER)
03:07AM -30.7017 117.2359 22° Northeast 437 503 31,300 1,200 Climbing FlightAware ADS-B (YPPH / PER)
03:08AM -30.6266 117.2707 22° Northeast 434 499 32,300 1,260 Climbing FlightAware ADS-B (YPPH / PER)
03:08AM -30.5533 117.3042 21° North 431 496 33,000 540 Climbing FlightAware ADS-B (YPPH / PER)
03:09AM -30.4880 117.3337 21° North 429 494 33,000  Level FlightAware ADS-B (YPPH / PER)
03:09AM -30.4148 117.3672 22° Northeast 421 484 33,000  Level FlightAware ADS-B (YPPH / PER)
03:10AM -30.3392 117.3855 12° North 416 479 33,000  Level FlightAware ADS-B (YPPH / PER)
03:10AM -30.3025 117.3792 352° North 412 474 33,000  Level FlightAware ADS-B (YPPH / PER)
03:11AM -30.2460 117.3548 340° North 411 473 33,000  Level FlightAware ADS-B (YPPH / PER)
03:12AM -30.1726 117.3210 338° Northwest 409 471 33,000  Level FlightAware ADS-B (YPPH / PER)
03:12AM -30.1414 117.2974 327° Northwest 401 461 33,000  Level FlightAware ADS-B (YPPH / PER)
03:13AM -30.0842 117.2399 319° Northwest 408 470 33,000  Level FlightAware ADS-B (YPPH / PER)
03:13AM -30.0332 117.1905 320° Northwest 409 471 33,000  Level FlightAware ADS-B (YPPH / PER)
03:14AM -29.9996 117.1714 334° Northwest 412 474 33,000  Level FlightAware ADS-B (YPPH / PER)
03:14AM -29.9630 117.1617 347° North 409 471 33,000  Level FlightAware ADS-B (YPPH / PER)
03:14AM -29.9237 117.1623 North 424 488 33,000  Level FlightAware ADS-B (YPPH / PER)
03:15AM -29.8864 117.1730 14° North 425 489 33,000  Level FlightAware ADS-B (YPPH / PER)
03:15AM -29.7893 117.2318 28° Northeast 440 506 33,000 -180 Level FlightAware ADS-B (YPPH / PER)
03:16AM -29.7295 117.2716 28° Northeast 435 501 32,800  Descending Aus ATC (RADAR)
03:16AM -29.7194 117.2808 28° Northeast 436 502 33,000 240 Climbing FlightAware ADS-B (YPPH / PER)
03:17AM -29.6521 117.3284 32° Northeast 435 501 33,000  Level FlightAware ADS-B (YPPH / PER)
03:18AM -29.5569 117.3958 32° Northeast 433 498 33,000  Level FlightAware ADS-B (YPPH / PER)
03:18AM -29.4883 117.4414 30° Northeast 433 498 33,000  Level FlightAware ADS-B (YPPH / PER)
03:19AM -29.4201 117.4872 30° Northeast 431 496 33,000  Level FlightAware ADS-B (YPPH / PER)
03:20AM -29.3266 117.5510 31° Northeast 431 496 33,000  Level FlightAware ADS-B (YPPH / PER)
03:21AM -29.2580 117.5985 31° Northeast 435 501 33,000  Level FlightAware ADS-B (YPPH / PER)
03:21AM -29.1898 117.6442 30° Northeast 416 479 33,000  Level FlightAware ADS-B (YPPH / PER)
03:22AM -29.0996 117.7056 31° Northeast 418 481 33,000  Level FlightAware ADS-B (YPPH / PER)
03:23AM -29.0311 117.7519 31° Northeast 419 482 33,000  Level FlightAware ADS-B (YPPH / PER)
03:23AM -28.9641 117.7972 31° Northeast 432 497 33,000  Level FlightAware ADS-B (YPPH / PER)
03:24AM -28.9122 117.8319 30° Northeast 429 494 33,000 -300 Level FlightAware ADS-B (YPPH / PER)
03:25AM -28.8405 117.8760 30° Northeast 426 490 32,700 -240 Descending Aus ATC (RADAR)
03:25AM -28.7813 117.9166 31° Northeast 427 491 32,700  Level Aus ATC (RADAR)
03:26AM -28.7051 117.9687 31° Northeast 427 491 32,700  Level Aus ATC (RADAR)
03:26AM -28.6536 118.0019 30° Northeast 426 490 32,700  Level Aus ATC (RADAR)
03:27AM -28.6030 118.0371 31° Northeast 427 491 32,700  Level Aus ATC (RADAR)
03:28AM -28.5182 118.0941 31° Northeast 427 491 32,700  Level Aus ATC (RADAR)
03:29AM -28.4071 118.1694 31° Northeast 429 494 32,700  Level Aus ATC (RADAR)
03:29AM -28.3558 118.2032 30° Northeast 428 493 32,700  Level Aus ATC (RADAR)
03:30AM -28.3222 118.2275 32° Northeast 429 494 32,700  Level Aus ATC (RADAR)
03:30AM -28.2969 118.2445 31° Northeast 429 494 32,700  Level Aus ATC (RADAR)
03:47AM -26.4147 119.1210 201° Southwest 436 502 32,700  Level Aus ATC (RADAR)
03:48AM -27.7385 118.5443 201° Southwest  Level FlightAware Approximate
03:48AM -26.3586 119.1440 20° North 542 624 32,700  Level Aus ATC (RADAR)
03:48AM -26.2946 119.1725 22° Northeast 444 511 32,700  Level Aus ATC (RADAR)
03:49AM -26.2191 119.2070 22° Northeast 440 506 32,700  Level Aus ATC (RADAR)
03:50AM -26.1081 119.2501 19° North 489 563 32,700  Level Aus ATC (RADAR)
03:51AM -26.0406 119.2822 23° Northeast 462 532 32,700  Level Aus ATC (RADAR)
03:51AM -25.9839 119.3069 21° North 451 519 32,700  Level Aus ATC (RADAR)
03:52AM -25.8695 119.3554 21° North 454 522 32,700  Level Aus ATC (RADAR)
03:53AM -25.7748 119.3945 20° North 439 505 32,700  Level Aus ATC (RADAR)
03:54AM -25.7099 119.4194 19° North 430 495 32,700  Level Aus ATC (RADAR)
03:55AM -25.5668 119.4790 21° North 438 504 32,700  Level Aus ATC (RADAR)
03:55AM -25.5097 119.5031 21° North 438 504 32,700  Level Aus ATC (RADAR)
03:56AM -25.4433 119.5311 21° North 438 504 32,700  Level Aus ATC (RADAR)
03:57AM -25.3478 119.5710 21° North 438 504 32,700 -120 Level Aus ATC (RADAR)
03:57AM -25.2824 119.5972 20° North 432 497 32,600 -120 Descending Aus ATC (RADAR)
03:58AM -25.1951 119.6341 21° North 442 509 32,600  Level Aus ATC (RADAR)
03:58AM -25.1572 119.6493 20° North 441 507 32,600  Level Aus ATC (RADAR)
03:59AM -25.0906 119.6765 20° North 438 504 32,600  Level Aus ATC (RADAR)
04:00AM -24.9535 119.7340 21° North 451 519 32,600  Level Aus ATC (RADAR)
04:01AM -24.9054 119.7536 20° North 448 516 32,600  Level Aus ATC (RADAR)
04:01AM -24.8374 119.7820 21° North 447 514 32,600  Level Aus ATC (RADAR)
04:02AM -24.7692 119.8105 21° North 449 517 32,600  Level Aus ATC (RADAR)
04:02AM -24.7037 119.8366 20° North 439 505 32,600  Level Aus ATC (RADAR)
04:03AM -24.5769 119.8890 21° North 444 511 32,600  Level Aus ATC (RADAR)
04:04AM -24.5276 119.9092 20° North 448 516 32,600  Level Aus ATC (RADAR)
04:05AM -24.4117 119.9563 20° North 444 511 32,600  Level Aus ATC (RADAR)
04:05AM -24.3627 119.9764 20° North 446 513 32,600  Level Aus ATC (RADAR)
04:06AM -24.3024 120.0015 21° North 456 525 32,600  Level Aus ATC (RADAR)
04:06AM -24.2345 120.0289 20° North 450 518 32,600  Level Aus ATC (RADAR)
04:07AM -24.1355 120.0690 20° North 454 522 32,600  Level Aus ATC (RADAR)
04:08AM -24.0675 120.0966 20° North 449 517 32,600  Level Aus ATC (RADAR)
04:09AM -23.9588 120.1409 20° North 452 520 32,600  Level Aus ATC (RADAR)
04:09AM -23.8888 120.1692 20° North 456 525 32,600  Level Aus ATC (RADAR)
04:10AM -23.7400 120.2292 20° North 460 529 32,600  Level Aus ATC (RADAR)
04:11AM -23.7069 120.2438 22° Northeast 434 499 32,600  Level Aus ATC (RADAR)
04:11AM -23.6359 120.2724 20° North 438 504 32,600  Level Aus ATC (RADAR)
04:12AM -23.5451 120.3088 20° North 447 514 32,600  Level Aus ATC (RADAR)
04:13AM -23.4762 120.3367 20° North 450 518 32,600  Level Aus ATC (RADAR)
04:13AM -23.4028 120.3653 20° North 464 534 32,600  Level Aus ATC (RADAR)
04:14AM -23.3347 120.3935 21° North 456 525 32,600  Level Aus ATC (RADAR)
04:15AM -23.2316 120.4334 20° North 467 537 32,600  Level Aus ATC (RADAR)
04:15AM -23.1916 120.4499 21° North 466 536 32,600  Level Aus ATC (RADAR)
04:16AM -23.1026 120.4828 19° North 450 518 32,600  Level Aus ATC (RADAR)
04:16AM -23.0495 120.4787 356° North 435 501 32,600  Level Aus ATC (RADAR)
04:17AM -22.9299 120.4131 333° Northwest 478 550 32,600  Level Aus ATC (RADAR)
04:17AM -22.9042 120.3907 321° Northwest 477 549 32,600  Level Aus ATC (RADAR)
04:18AM -22.8373 120.3328 321° Northwest 457 526 32,600  Level Aus ATC (RADAR)
04:19AM -22.7771 120.2817 322° Northwest 456 525 32,600  Level Aus ATC (RADAR)
04:19AM -22.7170 120.2304 322° Northwest 456 525 32,600  Level Aus ATC (RADAR)
04:21AM -22.5677 120.1156 325° Northwest 443 510 32,600  Level Aus ATC (RADAR)
04:21AM -22.5354 120.1080 348° North 445 512 32,600  Level Aus ATC (RADAR)
04:21AM -22.4576 120.1093 North 475 547 32,600  Level Aus ATC (RADAR)
04:22AM -22.3747 120.1404 19° North 488 562 32,600  Level Aus ATC (RADAR)
04:23AM -22.3063 120.1693 21° North 465 535 32,600  Level Aus ATC (RADAR)
04:24AM -22.2054 120.2102 21° North 462 532 32,600  Level Aus ATC (RADAR)
04:24AM -22.1452 120.2348 21° North 461 531 32,600  Level Aus ATC (RADAR)
04:25AM -22.0341 120.2797 21° North 463 533 32,600  Level Aus ATC (RADAR)
04:25AM -21.9835 120.3000 20° North 463 533 32,600  Level Aus ATC (RADAR)
04:26AM -21.9325 120.3203 20° North 465 535 32,600  Level Aus ATC (RADAR)
04:26AM -21.8612 120.3490 20° North 466 536 32,600  Level Aus ATC (RADAR)
04:27AM -21.7689 120.3855 20° North 468 539 32,600  Level Aus ATC (RADAR)
04:28AM -21.7070 120.4096 20° North 469 540 32,600 -120 Level Aus ATC (RADAR)
04:28AM -21.6360 120.4384 21° North 467 537 32,500 -120 Descending Aus ATC (RADAR)
04:29AM -21.5650 120.4674 21° North 465 535 32,500  Level Aus ATC (RADAR)
04:29AM -21.4837 120.5000 20° North 464 534 32,500  Level Aus ATC (RADAR)
04:30AM -21.3939 120.5372 21° North 462 532 32,500  Level Aus ATC (RADAR)
04:31AM -21.3432 120.5572 20° North 462 532 32,500  Level Aus ATC (RADAR)
04:31AM -21.2720 120.5851 20° North 463 533 32,500  Level Aus ATC (RADAR)
04:32AM -21.1809 120.6210 20° North 462 532 32,500  Level Aus ATC (RADAR)
04:33AM -21.1101 120.6495 21° North 463 533 32,500  Level Aus ATC (RADAR)
04:33AM -21.0395 120.6784 21° North 463 533 32,500  Level Aus ATC (RADAR)
04:34AM -20.9478 120.7156 21° North 466 536 32,500  Level Aus ATC (RADAR)
04:34AM -20.9076 120.7323 21° North 466 536 32,500  Level Aus ATC (RADAR)
04:36AM -20.7759 120.8003 26° Northeast  Level Estimated
04:43AM -20.0570 121.1691 26° Northeast  Level Estimated
04:43AM -19.9058 121.3680 251° West 11,700  Level Aus ATC (Calculated)
04:44AM -19.9542 121.2215 26° Northeast  Level Estimated
04:44AM -19.8142 121.4257 22° Northeast 11,700  Level Aus ATC (Calculated)
04:46AM -19.6425 121.5005 22° Northeast  Level Estimated
04:46AM -19.5564 121.5875 21° North 11,700  Level Aus ATC (Calculated)
04:48AM -19.4062 121.6481 21° North  Level Estimated
04:49AM -19.2988 121.6914 21° North  Level Estimated
04:49AM -19.2769 121.7623 19° North 11,700  Level Aus ATC (Calculated)
04:51AM -19.0610 121.8389 19° North  Level Estimated
04:52AM -18.9522 121.8774 19° North  Level Estimated
04:53AM -18.8433 121.9159 19° North  Level Estimated
04:53AM -18.8049 122.0559 11° North 11,700  Level Aus ATC (Calculated)
04:55AM -18.5946 122.0990 11° North  Level Estimated
04:56AM -18.4819 122.1221 11° North  Level Estimated
04:56AM -18.4375 122.2831 354° North  Level Aus ATC (Calculated)
04:57AM -18.3765 122.2762 354° North  Level Aus ATC (Calculated)
04:59AM -18.1632 122.2542 354° North  Level Estimated
04:59AM -18.2533 122.2651 354° North 500  Level Aus ATC (Calculated)
05:00AM -18.0490 122.2424 354° North  Level Estimated
05:01AM -18.0382 122.2418 354° North  Level Estimated
05:02AM -17.9447 122.2317 354° North  Level Estimated
05:02AM -18.0691 122.2472 360° North 500  Level Aus ATC (Calculated)
05:02AM -18.0691 122.2472 360° North 500  Level Aus ATC (Calculated)
05:02AM -18.0691 122.2472 353° North 500  Level Aus ATC (Calculated)
05:04AM -17.9447 122.2317 353° North  Level Estimated
05:05AM -17.9447 122.2317 235° Southwest  Level Estimated
05:06AM -17.9447 122.2317 235° Southwest  Level Estimated
05:07AM -17.9447 122.2317 235° Southwest  Level Estimated
05:08AM -17.9447 122.2317 235° Southwest  Level Estimated
05:09AM -17.9447 122.2317 235° Southwest  Level Estimated
05:10AM -17.9447 122.2317 235° Southwest  Level Estimated